Ossining, New York
Current Conditions -  °F | °C
As of 5:56 PM on Saturday 25 Oct 2014 (Local Time) from KHPN Reporting Station
Few Clouds Few Clouds  
Wind Chill: 62°   Ceiling: Unl
Heat Index: 62°   Visibility: 10mi
Dew Point: 42°   Wind: 5mph
Humidity: 48%   Direction: NA
Pressure: 29.63"   Gusts: NA
Location:  41.16°N, 73.86°W
Report Text: KHPN 252156Z VRB04KT 10SM FEW070 17/06 A2963 RMK AO2 SLP035 T01670056
Loading
Personal Weather Stations






























Interactive Weather Map
Tropical Storm Tracking
New forecast layout! Learn more

10-Day Weather Forecast

Advertisements
Track Severe Weather on mobile